sensor_id;sensor_type;location;lat;lon;timestamp;P1;durP1;ratioP1;P2;durP2;ratioP2
66521;SDS011;53349;53.538;8.584;2023-08-31T00:02:14;7.87;;;3.90;;
66521;SDS011;53349;53.538;8.584;2023-08-31T00:04:40;7.78;;;3.60;;
66521;SDS011;53349;53.538;8.584;2023-08-31T00:07:05;7.87;;;3.30;;
66521;SDS011;53349;53.538;8.584;2023-08-31T00:09:30;6.20;;;3.17;;
66521;SDS011;53349;53.538;8.584;2023-08-31T00:11:56;7.20;;;3.17;;
66521;SDS011;53349;53.538;8.584;2023-08-31T00:14:22;6.95;;;2.85;;
66521;SDS011;53349;53.538;8.584;2023-08-31T00:16:48;7.20;;;2.92;;
66521;SDS011;53349;53.538;8.584;2023-08-31T00:19:14;7.78;;;2.88;;
66521;SDS011;53349;53.538;8.584;2023-08-31T00:21:40;7.03;;;2.97;;
66521;SDS011;53349;53.538;8.584;2023-08-31T00:24:09;7.67;;;3.10;;
66521;SDS011;53349;53.538;8.584;2023-08-31T00:26:37;8.07;;;2.90;;
66521;SDS011;53349;53.538;8.584;2023-08-31T00:29:02;9.15;;;3.60;;
66521;SDS011;53349;53.538;8.584;2023-08-31T00:31:29;8.97;;;2.90;;
66521;SDS011;53349;53.538;8.584;2023-08-31T00:33:56;6.50;;;2.60;;
66521;SDS011;53349;53.538;8.584;2023-08-31T00:36:21;5.80;;;2.40;;
66521;SDS011;53349;53.538;8.584;2023-08-31T00:38:47;5.85;;;2.30;;
66521;SDS011;53349;53.538;8.584;2023-08-31T00:41:12;5.93;;;2.30;;
66521;SDS011;53349;53.538;8.584;2023-08-31T00:43:39;7.20;;;2.37;;
66521;SDS011;53349;53.538;8.584;2023-08-31T00:46:05;4.13;;;1.85;;
66521;SDS011;53349;53.538;8.584;2023-08-31T00:48:31;9.33;;;2.80;;
66521;SDS011;53349;53.538;8.584;2023-08-31T00:50:57;5.40;;;2.30;;
66521;SDS011;53349;53.538;8.584;2023-08-31T00:53:22;6.97;;;2.80;;
66521;SDS011;53349;53.538;8.584;2023-08-31T00:55:49;6.40;;;2.80;;
66521;SDS011;53349;53.538;8.584;2023-08-31T00:58:14;6.43;;;2.70;;
66521;SDS011;53349;53.538;8.584;2023-08-31T01:00:43;7.13;;;2.63;;
66521;SDS011;53349;53.538;8.584;2023-08-31T01:11:45;5.10;;;2.22;;
66521;SDS011;53349;53.538;8.584;2023-08-31T01:14:32;4.95;;;2.22;;
66521;SDS011;53349;53.538;8.584;2023-08-31T01:17:02;7.32;;;2.47;;
66521;SDS011;53349;53.538;8.584;2023-08-31T01:19:48;6.03;;;2.50;;
66521;SDS011;53349;53.538;8.584;2023-08-31T01:24:52;6.03;;;2.20;;
66521;SDS011;53349;53.538;8.584;2023-08-31T01:27:19;7.68;;;2.67;;
66521;SDS011;53349;53.538;8.584;2023-08-31T01:29:45;4.85;;;2.38;;
66521;SDS011;53349;53.538;8.584;2023-08-31T01:32:11;6.07;;;2.63;;
66521;SDS011;53349;53.538;8.584;2023-08-31T01:34:37;7.78;;;2.38;;
66521;SDS011;53349;53.538;8.584;2023-08-31T01:37:08;7.83;;;2.30;;
66521;SDS011;53349;53.538;8.584;2023-08-31T01:42:27;5.68;;;2.58;;
66521;SDS011;53349;53.538;8.584;2023-08-31T01:44:54;5.70;;;2.40;;
66521;SDS011;53349;53.538;8.584;2023-08-31T01:47:23;6.20;;;2.00;;
66521;SDS011;53349;53.538;8.584;2023-08-31T01:49:51;6.80;;;1.90;;
66521;SDS011;53349;53.538;8.584;2023-08-31T01:52:16;8.52;;;2.28;;
66521;SDS011;53349;53.538;8.584;2023-08-31T01:54:42;8.77;;;2.20;;
66521;SDS011;53349;53.538;8.584;2023-08-31T01:57:09;8.43;;;2.33;;
66521;SDS011;53349;53.538;8.584;2023-08-31T01:59:35;6.40;;;2.17;;
66521;SDS011;53349;53.538;8.584;2023-08-31T02:02:03;5.72;;;2.10;;
66521;SDS011;53349;53.538;8.584;2023-08-31T02:04:29;7.53;;;2.05;;
66521;SDS011;53349;53.538;8.584;2023-08-31T02:06:55;6.87;;;2.30;;
66521;SDS011;53349;53.538;8.584;2023-08-31T02:09:20;7.47;;;1.95;;
66521;SDS011;53349;53.538;8.584;2023-08-31T02:11:46;5.90;;;1.70;;
66521;SDS011;53349;53.538;8.584;2023-08-31T02:14:11;4.43;;;1.90;;
66521;SDS011;53349;53.538;8.584;2023-08-31T02:16:38;4.80;;;1.80;;
66521;SDS011;53349;53.538;8.584;2023-08-31T02:19:04;5.40;;;1.60;;
66521;SDS011;53349;53.538;8.584;2023-08-31T02:21:30;5.80;;;1.80;;
66521;SDS011;53349;53.538;8.584;2023-08-31T02:23:56;4.72;;;1.50;;
66521;SDS011;53349;53.538;8.584;2023-08-31T02:26:23;4.20;;;1.50;;
66521;SDS011;53349;53.538;8.584;2023-08-31T02:28:48;4.75;;;1.60;;
66521;SDS011;53349;53.538;8.584;2023-08-31T02:31:16;4.45;;;1.50;;
66521;SDS011;53349;53.538;8.584;2023-08-31T02:33:42;4.50;;;1.77;;
66521;SDS011;53349;53.538;8.584;2023-08-31T02:36:09;4.50;;;1.75;;
66521;SDS011;53349;53.538;8.584;2023-08-31T02:38:34;5.73;;;2.10;;
66521;SDS011;53349;53.538;8.584;2023-08-31T02:41:00;4.05;;;1.65;;
66521;SDS011;53349;53.538;8.584;2023-08-31T02:43:25;5.78;;;2.20;;
66521;SDS011;53349;53.538;8.584;2023-08-31T02:45:58;4.53;;;1.83;;
66521;SDS011;53349;53.538;8.584;2023-08-31T02:48:27;4.95;;;1.95;;
66521;SDS011;53349;53.538;8.584;2023-08-31T02:50:53;6.00;;;2.30;;
66521;SDS011;53349;53.538;8.584;2023-08-31T02:53:20;7.03;;;2.45;;
66521;SDS011;53349;53.538;8.584;2023-08-31T02:55:46;8.07;;;2.22;;
66521;SDS011;53349;53.538;8.584;2023-08-31T02:58:11;6.67;;;2.40;;
66521;SDS011;53349;53.538;8.584;2023-08-31T03:00:36;5.97;;;2.33;;
66521;SDS011;53349;53.538;8.584;2023-08-31T03:03:02;6.33;;;2.30;;
66521;SDS011;53349;53.538;8.584;2023-08-31T03:05:27;6.83;;;2.40;;
66521;SDS011;53349;53.538;8.584;2023-08-31T03:07:54;6.88;;;2.10;;
66521;SDS011;53349;53.538;8.584;2023-08-31T03:10:20;6.43;;;2.30;;
66521;SDS011;53349;53.538;8.584;2023-08-31T03:12:46;4.78;;;1.73;;
66521;SDS011;53349;53.538;8.584;2023-08-31T03:15:11;4.60;;;1.70;;
66521;SDS011;53349;53.538;8.584;2023-08-31T03:17:36;5.80;;;1.57;;
66521;SDS011;53349;53.538;8.584;2023-08-31T03:20:02;4.38;;;1.77;;
66521;SDS011;53349;53.538;8.584;2023-08-31T03:22:29;4.28;;;1.50;;
66521;SDS011;53349;53.538;8.584;2023-08-31T03:24:56;5.97;;;2.00;;
66521;SDS011;53349;53.538;8.584;2023-08-31T03:27:22;7.28;;;2.97;;
66521;SDS011;53349;53.538;8.584;2023-08-31T03:29:48;6.75;;;2.60;;
66521;SDS011;53349;53.538;8.584;2023-08-31T03:32:13;7.17;;;2.30;;
66521;SDS011;53349;53.538;8.584;2023-08-31T03:34:39;7.20;;;2.50;;
66521;SDS011;53349;53.538;8.584;2023-08-31T03:37:05;7.75;;;2.33;;
66521;SDS011;53349;53.538;8.584;2023-08-31T03:39:30;6.53;;;2.30;;
66521;SDS011;53349;53.538;8.584;2023-08-31T03:41:56;5.60;;;2.37;;
66521;SDS011;53349;53.538;8.584;2023-08-31T03:44:22;5.20;;;2.50;;
66521;SDS011;53349;53.538;8.584;2023-08-31T03:46:48;8.23;;;2.75;;
66521;SDS011;53349;53.538;8.584;2023-08-31T03:49:13;6.27;;;2.40;;
66521;SDS011;53349;53.538;8.584;2023-08-31T03:51:39;6.00;;;2.30;;
66521;SDS011;53349;53.538;8.584;2023-08-31T03:54:07;6.78;;;2.10;;
66521;SDS011;53349;53.538;8.584;2023-08-31T03:56:33;7.10;;;1.88;;
66521;SDS011;53349;53.538;8.584;2023-08-31T03:59:00;5.63;;;2.20;;
66521;SDS011;53349;53.538;8.584;2023-08-31T04:01:27;3.80;;;1.98;;
66521;SDS011;53349;53.538;8.584;2023-08-31T04:03:52;6.68;;;2.28;;
66521;SDS011;53349;53.538;8.584;2023-08-31T04:06:18;6.00;;;1.92;;
66521;SDS011;53349;53.538;8.584;2023-08-31T04:08:45;5.73;;;2.50;;
66521;SDS011;53349;53.538;8.584;2023-08-31T04:11:11;6.95;;;2.25;;
66521;SDS011;53349;53.538;8.584;2023-08-31T04:13:36;6.90;;;2.00;;
66521;SDS011;53349;53.538;8.584;2023-08-31T04:16:01;6.22;;;2.15;;
66521;SDS011;53349;53.538;8.584;2023-08-31T04:18:29;7.40;;;1.98;;
66521;SDS011;53349;53.538;8.584;2023-08-31T04:20:54;5.80;;;1.92;;
66521;SDS011;53349;53.538;8.584;2023-08-31T04:23:20;5.07;;;2.33;;
66521;SDS011;53349;53.538;8.584;2023-08-31T04:25:46;6.22;;;2.58;;
66521;SDS011;53349;53.538;8.584;2023-08-31T04:28:12;5.95;;;2.30;;
66521;SDS011;53349;53.538;8.584;2023-08-31T04:30:39;6.85;;;2.45;;
66521;SDS011;53349;53.538;8.584;2023-08-31T04:33:05;5.03;;;2.10;;
66521;SDS011;53349;53.538;8.584;2023-08-31T04:35:31;5.63;;;2.00;;
66521;SDS011;53349;53.538;8.584;2023-08-31T04:37:57;7.70;;;2.33;;
66521;SDS011;53349;53.538;8.584;2023-08-31T04:40:23;5.83;;;1.80;;
66521;SDS011;53349;53.538;8.584;2023-08-31T04:42:48;6.80;;;2.10;;
66521;SDS011;53349;53.538;8.584;2023-08-31T04:45:14;6.53;;;2.25;;
66521;SDS011;53349;53.538;8.584;2023-08-31T04:47:40;5.10;;;2.30;;
66521;SDS011;53349;53.538;8.584;2023-08-31T04:50:05;6.93;;;2.40;;
66521;SDS011;53349;53.538;8.584;2023-08-31T04:52:32;6.72;;;2.60;;
66521;SDS011;53349;53.538;8.584;2023-08-31T04:55:00;5.07;;;2.00;;
66521;SDS011;53349;53.538;8.584;2023-08-31T04:57:27;7.13;;;2.60;;
66521;SDS011;53349;53.538;8.584;2023-08-31T04:59:53;7.37;;;2.50;;
66521;SDS011;53349;53.538;8.584;2023-08-31T05:02:18;6.53;;;2.37;;
66521;SDS011;53349;53.538;8.584;2023-08-31T05:04:44;5.82;;;2.58;;
66521;SDS011;53349;53.538;8.584;2023-08-31T05:07:09;7.83;;;2.50;;
66521;SDS011;53349;53.538;8.584;2023-08-31T05:09:35;5.20;;;2.10;;
66521;SDS011;53349;53.538;8.584;2023-08-31T05:12:02;7.07;;;2.30;;
66521;SDS011;53349;53.538;8.584;2023-08-31T05:14:28;5.47;;;2.60;;
66521;SDS011;53349;53.538;8.584;2023-08-31T05:16:54;6.68;;;2.30;;
66521;SDS011;53349;53.538;8.584;2023-08-31T05:19:20;6.07;;;2.25;;
66521;SDS011;53349;53.538;8.584;2023-08-31T05:21:45;6.30;;;2.40;;
66521;SDS011;53349;53.538;8.584;2023-08-31T05:24:12;6.93;;;2.38;;
66521;SDS011;53349;53.538;8.584;2023-08-31T05:26:38;4.57;;;1.80;;
66521;SDS011;53349;53.538;8.584;2023-08-31T05:29:04;5.80;;;2.13;;
66521;SDS011;53349;53.538;8.584;2023-08-31T05:31:33;6.10;;;2.30;;
66521;SDS011;53349;53.538;8.584;2023-08-31T05:33:59;5.30;;;2.30;;
66521;SDS011;53349;53.538;8.584;2023-08-31T05:36:24;5.95;;;2.03;;
66521;SDS011;53349;53.538;8.584;2023-08-31T05:38:50;6.93;;;2.20;;
66521;SDS011;53349;53.538;8.584;2023-08-31T05:41:16;5.15;;;2.10;;
66521;SDS011;53349;53.538;8.584;2023-08-31T05:43:41;4.93;;;1.97;;
66521;SDS011;53349;53.538;8.584;2023-08-31T05:46:07;5.03;;;1.83;;
66521;SDS011;53349;53.538;8.584;2023-08-31T05:48:34;7.17;;;2.40;;
66521;SDS011;53349;53.538;8.584;2023-08-31T05:51:00;4.75;;;2.13;;
66521;SDS011;53349;53.538;8.584;2023-08-31T05:53:26;6.47;;;2.20;;
66521;SDS011;53349;53.538;8.584;2023-08-31T05:55:52;5.15;;;2.38;;
66521;SDS011;53349;53.538;8.584;2023-08-31T05:58:19;4.90;;;2.10;;
66521;SDS011;53349;53.538;8.584;2023-08-31T06:00:45;6.97;;;2.20;;
66521;SDS011;53349;53.538;8.584;2023-08-31T06:03:10;4.77;;;1.73;;
66521;SDS011;53349;53.538;8.584;2023-08-31T06:05:36;6.88;;;2.30;;
66521;SDS011;53349;53.538;8.584;2023-08-31T06:08:02;7.80;;;2.40;;
66521;SDS011;53349;53.538;8.584;2023-08-31T06:10:27;5.82;;;1.90;;
66521;SDS011;53349;53.538;8.584;2023-08-31T06:12:53;8.20;;;2.50;;
66521;SDS011;53349;53.538;8.584;2023-08-31T06:15:18;8.13;;;2.30;;
66521;SDS011;53349;53.538;8.584;2023-08-31T06:17:45;5.53;;;2.67;;
66521;SDS011;53349;53.538;8.584;2023-08-31T06:20:12;5.10;;;2.35;;
66521;SDS011;53349;53.538;8.584;2023-08-31T06:22:38;7.60;;;2.37;;
66521;SDS011;53349;53.538;8.584;2023-08-31T06:25:03;8.10;;;2.40;;
66521;SDS011;53349;53.538;8.584;2023-08-31T06:27:29;5.88;;;2.22;;
66521;SDS011;53349;53.538;8.584;2023-08-31T06:29:55;7.13;;;2.63;;
66521;SDS011;53349;53.538;8.584;2023-08-31T06:32:21;5.72;;;2.53;;
66521;SDS011;53349;53.538;8.584;2023-08-31T06:34:47;6.53;;;2.28;;
66521;SDS011;53349;53.538;8.584;2023-08-31T06:37:12;6.15;;;2.90;;
66521;SDS011;53349;53.538;8.584;2023-08-31T06:39:38;6.10;;;2.77;;
66521;SDS011;53349;53.538;8.584;2023-08-31T06:42:03;7.57;;;2.90;;
66521;SDS011;53349;53.538;8.584;2023-08-31T06:44:30;9.85;;;3.45;;
66521;SDS011;53349;53.538;8.584;2023-08-31T06:46:57;9.85;;;2.80;;
66521;SDS011;53349;53.538;8.584;2023-08-31T06:49:23;7.13;;;3.00;;
66521;SDS011;53349;53.538;8.584;2023-08-31T06:51:50;6.97;;;2.95;;
66521;SDS011;53349;53.538;8.584;2023-08-31T06:54:16;7.30;;;3.10;;
66521;SDS011;53349;53.538;8.584;2023-08-31T06:56:42;6.93;;;3.08;;
66521;SDS011;53349;53.538;8.584;2023-08-31T06:59:08;7.10;;;2.87;;
66521;SDS011;53349;53.538;8.584;2023-08-31T07:01:34;6.47;;;3.03;;
66521;SDS011;53349;53.538;8.584;2023-08-31T07:03:59;8.07;;;3.50;;
66521;SDS011;53349;53.538;8.584;2023-08-31T07:06:26;5.85;;;3.00;;
66521;SDS011;53349;53.538;8.584;2023-08-31T07:08:52;6.80;;;3.13;;
66521;SDS011;53349;53.538;8.584;2023-08-31T07:11:18;6.87;;;3.30;;
66521;SDS011;53349;53.538;8.584;2023-08-31T07:13:44;7.03;;;3.70;;
66521;SDS011;53349;53.538;8.584;2023-08-31T07:16:09;11.63;;;4.00;;
66521;SDS011;53349;53.538;8.584;2023-08-31T07:18:35;8.17;;;3.67;;
66521;SDS011;53349;53.538;8.584;2023-08-31T07:21:01;6.68;;;3.30;;
66521;SDS011;53349;53.538;8.584;2023-08-31T07:23:27;6.20;;;3.10;;
66521;SDS011;53349;53.538;8.584;2023-08-31T07:25:56;7.65;;;3.50;;
66521;SDS011;53349;53.538;8.584;2023-08-31T07:28:25;6.78;;;3.30;;
66521;SDS011;53349;53.538;8.584;2023-08-31T07:30:59;8.27;;;4.00;;
66521;SDS011;53349;53.538;8.584;2023-08-31T07:33:26;6.47;;;4.25;;
66521;SDS011;53349;53.538;8.584;2023-08-31T07:35:51;7.93;;;3.57;;
66521;SDS011;53349;53.538;8.584;2023-08-31T07:38:17;8.68;;;3.83;;
66521;SDS011;53349;53.538;8.584;2023-08-31T07:40:42;8.87;;;3.83;;
66521;SDS011;53349;53.538;8.584;2023-08-31T07:43:08;6.67;;;3.10;;
66521;SDS011;53349;53.538;8.584;2023-08-31T07:45:36;8.00;;;3.75;;
66521;SDS011;53349;53.538;8.584;2023-08-31T07:48:01;8.33;;;3.50;;
66521;SDS011;53349;53.538;8.584;2023-08-31T07:50:27;8.25;;;3.50;;
66521;SDS011;53349;53.538;8.584;2023-08-31T07:52:52;7.63;;;3.80;;
66521;SDS011;53349;53.538;8.584;2023-08-31T07:55:19;7.30;;;3.70;;
66521;SDS011;53349;53.538;8.584;2023-08-31T07:57:46;7.70;;;3.60;;
66521;SDS011;53349;53.538;8.584;2023-08-31T08:00:12;7.25;;;3.72;;
66521;SDS011;53349;53.538;8.584;2023-08-31T08:02:37;7.78;;;3.53;;
66521;SDS011;53349;53.538;8.584;2023-08-31T08:05:03;6.37;;;3.97;;
66521;SDS011;53349;53.538;8.584;2023-08-31T08:07:29;9.43;;;3.90;;
66521;SDS011;53349;53.538;8.584;2023-08-31T08:09:56;9.15;;;3.70;;
66521;SDS011;53349;53.538;8.584;2023-08-31T08:12:24;7.45;;;3.33;;
66521;SDS011;53349;53.538;8.584;2023-08-31T08:14:49;6.95;;;3.80;;
66521;SDS011;53349;53.538;8.584;2023-08-31T08:17:15;6.10;;;3.30;;
66521;SDS011;53349;53.538;8.584;2023-08-31T08:19:40;6.77;;;3.10;;
66521;SDS011;53349;53.538;8.584;2023-08-31T08:22:06;6.40;;;2.95;;
66521;SDS011;53349;53.538;8.584;2023-08-31T08:24:32;8.77;;;3.10;;
66521;SDS011;53349;53.538;8.584;2023-08-31T08:26:57;6.82;;;2.95;;
66521;SDS011;53349;53.538;8.584;2023-08-31T08:29:24;7.53;;;3.50;;
66521;SDS011;53349;53.538;8.584;2023-08-31T08:31:51;5.30;;;2.63;;
66521;SDS011;53349;53.538;8.584;2023-08-31T08:34:16;4.70;;;2.70;;
66521;SDS011;53349;53.538;8.584;2023-08-31T08:36:41;6.67;;;2.77;;
66521;SDS011;53349;53.538;8.584;2023-08-31T08:39:07;5.20;;;2.77;;
66521;SDS011;53349;53.538;8.584;2023-08-31T08:41:32;7.22;;;2.60;;
66521;SDS011;53349;53.538;8.584;2023-08-31T08:44:01;8.47;;;2.70;;
66521;SDS011;53349;53.538;8.584;2023-08-31T08:46:29;6.18;;;2.72;;
66521;SDS011;53349;53.538;8.584;2023-08-31T08:48:56;4.65;;;2.70;;
66521;SDS011;53349;53.538;8.584;2023-08-31T08:51:24;7.13;;;3.67;;
66521;SDS011;53349;53.538;8.584;2023-08-31T08:53:52;6.30;;;3.10;;
66521;SDS011;53349;53.538;8.584;2023-08-31T08:56:18;7.33;;;2.60;;
66521;SDS011;53349;53.538;8.584;2023-08-31T08:58:43;7.15;;;4.05;;
66521;SDS011;53349;53.538;8.584;2023-08-31T09:01:09;7.10;;;3.50;;
66521;SDS011;53349;53.538;8.584;2023-08-31T09:03:35;7.30;;;3.55;;
66521;SDS011;53349;53.538;8.584;2023-08-31T09:06:01;7.27;;;3.57;;
66521;SDS011;53349;53.538;8.584;2023-08-31T09:08:27;6.50;;;3.17;;
66521;SDS011;53349;53.538;8.584;2023-08-31T09:10:54;5.28;;;2.92;;
66521;SDS011;53349;53.538;8.584;2023-08-31T09:13:20;5.63;;;2.40;;
66521;SDS011;53349;53.538;8.584;2023-08-31T09:15:51;6.32;;;2.30;;
66521;SDS011;53349;53.538;8.584;2023-08-31T09:18:23;5.53;;;2.50;;
66521;SDS011;53349;53.538;8.584;2023-08-31T09:20:53;4.57;;;2.05;;
66521;SDS011;53349;53.538;8.584;2023-08-31T09:23:19;4.60;;;2.30;;
66521;SDS011;53349;53.538;8.584;2023-08-31T09:25:47;7.45;;;2.55;;
66521;SDS011;53349;53.538;8.584;2023-08-31T09:28:18;6.13;;;2.60;;
66521;SDS011;53349;53.538;8.584;2023-08-31T09:30:48;7.13;;;2.50;;
66521;SDS011;53349;53.538;8.584;2023-08-31T09:33:15;6.78;;;2.47;;
66521;SDS011;53349;53.538;8.584;2023-08-31T09:35:51;7.13;;;2.30;;
66521;SDS011;53349;53.538;8.584;2023-08-31T09:38:19;6.20;;;1.98;;
66521;SDS011;53349;53.538;8.584;2023-08-31T09:40:46;6.23;;;2.13;;
66521;SDS011;53349;53.538;8.584;2023-08-31T09:43:12;4.88;;;2.08;;
66521;SDS011;53349;53.538;8.584;2023-08-31T09:45:44;5.57;;;2.10;;
66521;SDS011;53349;53.538;8.584;2023-08-31T09:48:09;5.33;;;2.10;;
66521;SDS011;53349;53.538;8.584;2023-08-31T09:50:36;5.65;;;2.15;;
66521;SDS011;53349;53.538;8.584;2023-08-31T09:53:04;4.05;;;1.60;;
66521;SDS011;53349;53.538;8.584;2023-08-31T09:55:30;5.18;;;1.40;;
66521;SDS011;53349;53.538;8.584;2023-08-31T09:57:58;4.78;;;1.38;;
66521;SDS011;53349;53.538;8.584;2023-08-31T10:00:29;5.40;;;1.73;;
66521;SDS011;53349;53.538;8.584;2023-08-31T10:03:02;4.47;;;1.60;;
66521;SDS011;53349;53.538;8.584;2023-08-31T10:05:29;5.00;;;1.70;;
66521;SDS011;53349;53.538;8.584;2023-08-31T10:07:55;5.10;;;1.77;;
66521;SDS011;53349;53.538;8.584;2023-08-31T10:10:22;4.70;;;1.30;;
66521;SDS011;53349;53.538;8.584;2023-08-31T10:12:48;3.88;;;1.50;;
66521;SDS011;53349;53.538;8.584;2023-08-31T10:15:15;3.20;;;1.45;;
66521;SDS011;53349;53.538;8.584;2023-08-31T10:17:41;4.15;;;1.48;;
66521;SDS011;53349;53.538;8.584;2023-08-31T10:20:07;8.50;;;1.50;;
66521;SDS011;53349;53.538;8.584;2023-08-31T10:22:34;5.43;;;1.90;;
66521;SDS011;53349;53.538;8.584;2023-08-31T10:25:03;7.30;;;1.92;;
66521;SDS011;53349;53.538;8.584;2023-08-31T10:27:37;5.63;;;1.50;;
66521;SDS011;53349;53.538;8.584;2023-08-31T10:30:13;6.85;;;1.95;;
66521;SDS011;53349;53.538;8.584;2023-08-31T10:32:38;5.00;;;1.80;;
66521;SDS011;53349;53.538;8.584;2023-08-31T10:35:07;3.75;;;1.30;;
66521;SDS011;53349;53.538;8.584;2023-08-31T10:37:33;4.85;;;1.00;;
66521;SDS011;53349;53.538;8.584;2023-08-31T10:42:46;4.97;;;1.40;;
66521;SDS011;53349;53.538;8.584;2023-08-31T10:45:43;5.18;;;1.60;;
66521;SDS011;53349;53.538;8.584;2023-08-31T10:48:09;4.80;;;1.73;;
66521;SDS011;53349;53.538;8.584;2023-08-31T10:50:34;4.80;;;2.03;;
66521;SDS011;53349;53.538;8.584;2023-08-31T10:53:10;5.73;;;1.87;;
66521;SDS011;53349;53.538;8.584;2023-08-31T10:55:51;3.20;;;1.70;;
66521;SDS011;53349;53.538;8.584;2023-08-31T10:58:17;4.47;;;1.65;;
66521;SDS011;53349;53.538;8.584;2023-08-31T11:00:56;3.58;;;1.27;;
66521;SDS011;53349;53.538;8.584;2023-08-31T11:03:21;3.83;;;1.17;;
66521;SDS011;53349;53.538;8.584;2023-08-31T11:05:53;2.93;;;1.17;;
66521;SDS011;53349;53.538;8.584;2023-08-31T11:08:22;4.03;;;1.30;;
66521;SDS011;53349;53.538;8.584;2023-08-31T11:10:50;4.85;;;1.50;;
66521;SDS011;53349;53.538;8.584;2023-08-31T11:13:18;3.70;;;1.20;;
66521;SDS011;53349;53.538;8.584;2023-08-31T11:15:45;4.00;;;1.70;;
66521;SDS011;53349;53.538;8.584;2023-08-31T11:18:11;5.32;;;1.63;;
66521;SDS011;53349;53.538;8.584;2023-08-31T11:20:37;6.32;;;1.60;;
66521;SDS011;53349;53.538;8.584;2023-08-31T11:23:04;4.35;;;1.52;;
66521;SDS011;53349;53.538;8.584;2023-08-31T11:25:30;5.17;;;1.50;;
66521;SDS011;53349;53.538;8.584;2023-08-31T11:27:57;4.80;;;1.58;;
66521;SDS011;53349;53.538;8.584;2023-08-31T11:30:27;3.97;;;1.02;;
66521;SDS011;53349;53.538;8.584;2023-08-31T11:32:54;3.20;;;1.08;;
66521;SDS011;53349;53.538;8.584;2023-08-31T11:35:23;2.90;;;1.00;;
66521;SDS011;53349;53.538;8.584;2023-08-31T11:37:50;3.30;;;1.17;;
66521;SDS011;53349;53.538;8.584;2023-08-31T11:40:20;4.07;;;0.98;;
66521;SDS011;53349;53.538;8.584;2023-08-31T11:42:47;3.03;;;0.80;;
66521;SDS011;53349;53.538;8.584;2023-08-31T11:45:13;3.40;;;0.75;;
66521;SDS011;53349;53.538;8.584;2023-08-31T11:47:41;4.43;;;0.95;;
66521;SDS011;53349;53.538;8.584;2023-08-31T11:50:08;3.00;;;0.90;;
66521;SDS011;53349;53.538;8.584;2023-08-31T11:52:34;3.20;;;1.20;;
66521;SDS011;53349;53.538;8.584;2023-08-31T11:54:59;4.03;;;1.30;;
66521;SDS011;53349;53.538;8.584;2023-08-31T11:57:25;3.13;;;1.00;;
66521;SDS011;53349;53.538;8.584;2023-08-31T11:59:54;4.35;;;1.20;;
66521;SDS011;53349;53.538;8.584;2023-08-31T12:02:21;2.55;;;1.05;;
66521;SDS011;53349;53.538;8.584;2023-08-31T12:04:47;3.90;;;1.20;;
66521;SDS011;53349;53.538;8.584;2023-08-31T12:07:19;3.92;;;0.88;;
66521;SDS011;53349;53.538;8.584;2023-08-31T12:09:45;4.13;;;1.20;;
66521;SDS011;53349;53.538;8.584;2023-08-31T12:12:15;3.72;;;1.27;;
66521;SDS011;53349;53.538;8.584;2023-08-31T12:14:52;3.83;;;1.30;;
66521;SDS011;53349;53.538;8.584;2023-08-31T12:17:18;4.07;;;1.15;;
66521;SDS011;53349;53.538;8.584;2023-08-31T12:19:44;5.40;;;1.30;;
66521;SDS011;53349;53.538;8.584;2023-08-31T12:22:09;7.13;;;1.30;;
66521;SDS011;53349;53.538;8.584;2023-08-31T12:24:38;2.63;;;0.90;;
66521;SDS011;53349;53.538;8.584;2023-08-31T12:27:04;4.00;;;0.70;;
66521;SDS011;53349;53.538;8.584;2023-08-31T12:29:29;3.53;;;0.70;;
66521;SDS011;53349;53.538;8.584;2023-08-31T12:31:55;2.10;;;0.57;;
66521;SDS011;53349;53.538;8.584;2023-08-31T12:34:23;2.50;;;0.70;;
66521;SDS011;53349;53.538;8.584;2023-08-31T12:36:48;3.35;;;0.80;;
66521;SDS011;53349;53.538;8.584;2023-08-31T12:39:14;2.83;;;0.90;;
66521;SDS011;53349;53.538;8.584;2023-08-31T12:41:39;2.85;;;0.70;;
66521;SDS011;53349;53.538;8.584;2023-08-31T12:44:07;3.37;;;0.60;;
66521;SDS011;53349;53.538;8.584;2023-08-31T12:46:34;2.53;;;0.80;;
66521;SDS011;53349;53.538;8.584;2023-08-31T12:49:00;2.55;;;0.60;;
66521;SDS011;53349;53.538;8.584;2023-08-31T12:51:28;2.90;;;0.70;;
66521;SDS011;53349;53.538;8.584;2023-08-31T12:53:54;1.90;;;0.50;;
66521;SDS011;53349;53.538;8.584;2023-08-31T12:56:19;2.20;;;0.33;;
66521;SDS011;53349;53.538;8.584;2023-08-31T12:58:45;1.98;;;0.50;;
66521;SDS011;53349;53.538;8.584;2023-08-31T13:01:10;2.43;;;0.50;;
66521;SDS011;53349;53.538;8.584;2023-08-31T13:03:36;2.17;;;0.60;;
66521;SDS011;53349;53.538;8.584;2023-08-31T13:06:01;2.47;;;0.53;;
66521;SDS011;53349;53.538;8.584;2023-08-31T13:08:27;2.43;;;0.50;;
66521;SDS011;53349;53.538;8.584;2023-08-31T13:10:52;2.72;;;0.60;;
66521;SDS011;53349;53.538;8.584;2023-08-31T13:13:19;2.67;;;0.50;;
66521;SDS011;53349;53.538;8.584;2023-08-31T13:15:48;2.85;;;0.50;;
66521;SDS011;53349;53.538;8.584;2023-08-31T13:18:16;2.78;;;0.60;;
66521;SDS011;53349;53.538;8.584;2023-08-31T13:20:49;2.78;;;0.73;;
66521;SDS011;53349;53.538;8.584;2023-08-31T13:23:16;4.53;;;0.60;;
66521;SDS011;53349;53.538;8.584;2023-08-31T13:25:42;2.57;;;0.53;;
66521;SDS011;53349;53.538;8.584;2023-08-31T13:28:07;2.60;;;0.77;;
66521;SDS011;53349;53.538;8.584;2023-08-31T13:30:32;2.50;;;0.50;;
66521;SDS011;53349;53.538;8.584;2023-08-31T13:32:59;3.87;;;0.60;;
66521;SDS011;53349;53.538;8.584;2023-08-31T13:35:27;2.28;;;0.60;;
66521;SDS011;53349;53.538;8.584;2023-08-31T13:37:52;2.38;;;0.60;;
66521;SDS011;53349;53.538;8.584;2023-08-31T13:40:18;3.33;;;0.70;;
66521;SDS011;53349;53.538;8.584;2023-08-31T13:42:57;3.42;;;0.60;;
66521;SDS011;53349;53.538;8.584;2023-08-31T13:45:24;1.93;;;0.60;;
66521;SDS011;53349;53.538;8.584;2023-08-31T13:47:50;3.58;;;0.60;;
66521;SDS011;53349;53.538;8.584;2023-08-31T13:50:16;2.13;;;0.40;;
66521;SDS011;53349;53.538;8.584;2023-08-31T13:52:43;4.20;;;0.80;;
66521;SDS011;53349;53.538;8.584;2023-08-31T13:55:08;3.40;;;0.90;;
66521;SDS011;53349;53.538;8.584;2023-08-31T13:57:34;2.97;;;0.82;;
66521;SDS011;53349;53.538;8.584;2023-08-31T14:00:00;3.37;;;0.83;;
66521;SDS011;53349;53.538;8.584;2023-08-31T14:02:26;2.95;;;0.52;;
66521;SDS011;53349;53.538;8.584;2023-08-31T14:04:52;4.20;;;0.93;;
66521;SDS011;53349;53.538;8.584;2023-08-31T14:07:18;4.50;;;0.70;;
66521;SDS011;53349;53.538;8.584;2023-08-31T14:09:44;4.47;;;0.80;;
66521;SDS011;53349;53.538;8.584;2023-08-31T14:12:09;3.63;;;0.60;;
66521;SDS011;53349;53.538;8.584;2023-08-31T14:14:35;3.65;;;0.80;;
66521;SDS011;53349;53.538;8.584;2023-08-31T14:17:00;1.80;;;0.40;;
66521;SDS011;53349;53.538;8.584;2023-08-31T14:19:25;2.80;;;0.43;;
66521;SDS011;53349;53.538;8.584;2023-08-31T14:21:51;2.63;;;0.60;;
66521;SDS011;53349;53.538;8.584;2023-08-31T14:24:16;2.70;;;0.63;;
66521;SDS011;53349;53.538;8.584;2023-08-31T14:26:43;3.37;;;0.80;;
66521;SDS011;53349;53.538;8.584;2023-08-31T14:29:33;2.75;;;0.70;;
66521;SDS011;53349;53.538;8.584;2023-08-31T14:31:59;4.00;;;0.90;;
66521;SDS011;53349;53.538;8.584;2023-08-31T14:34:24;5.43;;;0.80;;
66521;SDS011;53349;53.538;8.584;2023-08-31T14:36:50;2.70;;;0.80;;
66521;SDS011;53349;53.538;8.584;2023-08-31T14:39:15;2.50;;;0.80;;
66521;SDS011;53349;53.538;8.584;2023-08-31T14:41:41;3.73;;;0.80;;
66521;SDS011;53349;53.538;8.584;2023-08-31T14:44:06;4.30;;;0.50;;
66521;SDS011;53349;53.538;8.584;2023-08-31T14:46:33;2.88;;;0.70;;
66521;SDS011;53349;53.538;8.584;2023-08-31T14:48:58;2.60;;;0.53;;
66521;SDS011;53349;53.538;8.584;2023-08-31T14:51:23;3.07;;;0.63;;
66521;SDS011;53349;53.538;8.584;2023-08-31T14:53:49;2.78;;;0.63;;
66521;SDS011;53349;53.538;8.584;2023-08-31T14:56:14;3.53;;;0.80;;
66521;SDS011;53349;53.538;8.584;2023-08-31T14:58:40;3.63;;;0.80;;
66521;SDS011;53349;53.538;8.584;2023-08-31T15:01:05;4.57;;;0.80;;
66521;SDS011;53349;53.538;8.584;2023-08-31T15:03:34;2.75;;;1.00;;